sensor_id;sensor_type;location;lat;lon;timestamp;P1;durP1;ratioP1;P2;durP2;ratioP2
58874;SDS011;44652;49.040;12.126;2023-06-05T00:00:10;4.45;;;2.15;;
58874;SDS011;44652;49.040;12.126;2023-06-05T00:02:40;4.85;;;2.20;;
58874;SDS011;44652;49.040;12.126;2023-06-05T00:05:06;3.40;;;1.90;;
58874;SDS011;44652;49.040;12.126;2023-06-05T00:07:35;3.88;;;2.00;;
58874;SDS011;44652;49.040;12.126;2023-06-05T00:12:30;4.50;;;2.10;;
58874;SDS011;44652;49.040;12.126;2023-06-05T00:14:57;4.63;;;2.13;;
58874;SDS011;44652;49.040;12.126;2023-06-05T00:17:23;4.38;;;2.20;;
58874;SDS011;44652;49.040;12.126;2023-06-05T00:19:51;5.07;;;2.40;;
58874;SDS011;44652;49.040;12.126;2023-06-05T00:22:18;3.60;;;1.75;;
58874;SDS011;44652;49.040;12.126;2023-06-05T00:24:45;4.03;;;1.85;;
58874;SDS011;44652;49.040;12.126;2023-06-05T00:27:11;4.68;;;2.30;;
58874;SDS011;44652;49.040;12.126;2023-06-05T00:29:38;4.75;;;2.20;;
58874;SDS011;44652;49.040;12.126;2023-06-05T00:32:05;3.78;;;2.13;;
58874;SDS011;44652;49.040;12.126;2023-06-05T00:34:32;3.80;;;1.88;;
58874;SDS011;44652;49.040;12.126;2023-06-05T00:36:58;4.75;;;2.05;;
58874;SDS011;44652;49.040;12.126;2023-06-05T00:39:25;7.05;;;2.30;;
58874;SDS011;44652;49.040;12.126;2023-06-05T00:41:52;4.10;;;2.00;;
58874;SDS011;44652;49.040;12.126;2023-06-05T00:44:19;4.10;;;2.10;;
58874;SDS011;44652;49.040;12.126;2023-06-05T00:46:47;5.47;;;2.15;;
58874;SDS011;44652;49.040;12.126;2023-06-05T00:49:14;4.65;;;2.28;;
58874;SDS011;44652;49.040;12.126;2023-06-05T00:51:41;4.30;;;1.90;;
58874;SDS011;44652;49.040;12.126;2023-06-05T00:54:09;5.18;;;2.53;;
58874;SDS011;44652;49.040;12.126;2023-06-05T00:56:36;6.03;;;2.42;;
58874;SDS011;44652;49.040;12.126;2023-06-05T00:59:03;5.30;;;1.90;;
58874;SDS011;44652;49.040;12.126;2023-06-05T01:01:29;3.67;;;2.05;;
58874;SDS011;44652;49.040;12.126;2023-06-05T01:03:56;3.95;;;2.17;;
58874;SDS011;44652;49.040;12.126;2023-06-05T01:06:28;6.15;;;2.05;;
58874;SDS011;44652;49.040;12.126;2023-06-05T05:47:55;9.50;;;2.80;;
58874;SDS011;44652;49.040;12.126;2023-06-05T05:50:22;7.90;;;3.20;;
58874;SDS011;44652;49.040;12.126;2023-06-05T05:52:49;9.02;;;2.63;;
58874;SDS011;44652;49.040;12.126;2023-06-05T05:55:18;11.02;;;3.17;;
58874;SDS011;44652;49.040;12.126;2023-06-05T05:57:44;5.97;;;2.60;;
58874;SDS011;44652;49.040;12.126;2023-06-05T06:00:12;5.57;;;3.00;;
58874;SDS011;44652;49.040;12.126;2023-06-05T06:02:39;10.85;;;3.15;;
58874;SDS011;44652;49.040;12.126;2023-06-05T06:05:06;9.93;;;3.15;;
58874;SDS011;44652;49.040;12.126;2023-06-05T06:07:33;10.45;;;3.45;;
58874;SDS011;44652;49.040;12.126;2023-06-05T06:10:02;8.10;;;3.53;;
58874;SDS011;44652;49.040;12.126;2023-06-05T06:12:29;7.10;;;3.55;;
58874;SDS011;44652;49.040;12.126;2023-06-05T06:14:56;6.10;;;3.25;;
58874;SDS011;44652;49.040;12.126;2023-06-05T06:17:23;8.07;;;3.22;;
58874;SDS011;44652;49.040;12.126;2023-06-05T06:19:50;10.45;;;3.80;;
58874;SDS011;44652;49.040;12.126;2023-06-05T06:22:17;5.87;;;3.30;;
58874;SDS011;44652;49.040;12.126;2023-06-05T06:24:44;8.45;;;3.72;;
58874;SDS011;44652;49.040;12.126;2023-06-05T06:27:13;6.85;;;3.60;;
58874;SDS011;44652;49.040;12.126;2023-06-05T06:32:52;6.25;;;4.03;;
58874;SDS011;44652;49.040;12.126;2023-06-05T06:35:20;9.27;;;4.00;;
58874;SDS011;44652;49.040;12.126;2023-06-05T06:37:48;8.60;;;4.10;;
58874;SDS011;44652;49.040;12.126;2023-06-05T06:40:14;7.20;;;3.77;;
58874;SDS011;44652;49.040;12.126;2023-06-05T06:42:41;10.77;;;4.43;;
58874;SDS011;44652;49.040;12.126;2023-06-05T06:45:28;13.57;;;3.92;;
58874;SDS011;44652;49.040;12.126;2023-06-05T06:47:54;7.13;;;4.40;;
58874;SDS011;44652;49.040;12.126;2023-06-05T06:50:33;13.30;;;3.97;;
58874;SDS011;44652;49.040;12.126;2023-06-05T06:53:00;12.13;;;4.78;;
58874;SDS011;44652;49.040;12.126;2023-06-05T06:55:27;6.35;;;3.80;;
58874;SDS011;44652;49.040;12.126;2023-06-05T06:57:54;8.30;;;4.75;;
58874;SDS011;44652;49.040;12.126;2023-06-05T07:00:21;8.90;;;3.78;;
58874;SDS011;44652;49.040;12.126;2023-06-05T07:02:47;7.28;;;4.53;;
58874;SDS011;44652;49.040;12.126;2023-06-05T07:05:15;9.67;;;4.63;;
58874;SDS011;44652;49.040;12.126;2023-06-05T07:07:42;9.52;;;4.78;;
58874;SDS011;44652;49.040;12.126;2023-06-05T07:10:08;7.68;;;4.07;;
58874;SDS011;44652;49.040;12.126;2023-06-05T07:12:35;10.90;;;3.83;;
58874;SDS011;44652;49.040;12.126;2023-06-05T07:15:02;10.02;;;4.60;;
58874;SDS011;44652;49.040;12.126;2023-06-05T07:17:29;9.23;;;4.55;;
58874;SDS011;44652;49.040;12.126;2023-06-05T07:19:56;8.50;;;4.63;;
58874;SDS011;44652;49.040;12.126;2023-06-05T07:22:23;8.57;;;4.38;;
58874;SDS011;44652;49.040;12.126;2023-06-05T07:24:55;9.88;;;4.40;;
58874;SDS011;44652;49.040;12.126;2023-06-05T07:27:21;11.00;;;4.22;;
58874;SDS011;44652;49.040;12.126;2023-06-05T07:29:48;13.85;;;5.43;;
58874;SDS011;44652;49.040;12.126;2023-06-05T07:32:17;8.32;;;4.72;;
58874;SDS011;44652;49.040;12.126;2023-06-05T07:34:44;9.48;;;4.57;;
58874;SDS011;44652;49.040;12.126;2023-06-05T07:37:11;7.25;;;4.80;;
58874;SDS011;44652;49.040;12.126;2023-06-05T07:39:38;7.57;;;4.68;;
58874;SDS011;44652;49.040;12.126;2023-06-05T07:42:04;6.85;;;4.30;;
58874;SDS011;44652;49.040;12.126;2023-06-05T07:44:32;8.70;;;4.40;;
58874;SDS011;44652;49.040;12.126;2023-06-05T07:46:58;9.15;;;4.28;;
58874;SDS011;44652;49.040;12.126;2023-06-05T07:49:25;8.70;;;5.03;;
58874;SDS011;44652;49.040;12.126;2023-06-05T07:51:51;6.53;;;4.15;;
58874;SDS011;44652;49.040;12.126;2023-06-05T07:54:18;7.75;;;4.28;;
58874;SDS011;44652;49.040;12.126;2023-06-05T07:56:46;6.78;;;3.92;;
58874;SDS011;44652;49.040;12.126;2023-06-05T07:59:18;9.43;;;4.57;;
58874;SDS011;44652;49.040;12.126;2023-06-05T08:01:51;8.52;;;4.63;;
58874;SDS011;44652;49.040;12.126;2023-06-05T08:04:18;6.57;;;4.72;;
58874;SDS011;44652;49.040;12.126;2023-06-05T08:09:13;8.60;;;4.80;;
58874;SDS011;44652;49.040;12.126;2023-06-05T08:11:39;15.00;;;5.20;;
58874;SDS011;44652;49.040;12.126;2023-06-05T08:14:08;16.95;;;5.10;;
58874;SDS011;44652;49.040;12.126;2023-06-05T08:16:35;12.10;;;4.97;;
58874;SDS011;44652;49.040;12.126;2023-06-05T08:19:05;8.63;;;4.60;;
58874;SDS011;44652;49.040;12.126;2023-06-05T08:21:33;7.88;;;4.50;;
58874;SDS011;44652;49.040;12.126;2023-06-05T08:24:00;6.90;;;4.32;;
58874;SDS011;44652;49.040;12.126;2023-06-05T08:26:27;7.07;;;4.45;;
58874;SDS011;44652;49.040;12.126;2023-06-05T08:28:53;8.05;;;4.10;;
58874;SDS011;44652;49.040;12.126;2023-06-05T08:31:20;6.03;;;3.97;;
58874;SDS011;44652;49.040;12.126;2023-06-05T08:33:47;7.93;;;4.63;;
58874;SDS011;44652;49.040;12.126;2023-06-05T08:36:14;8.95;;;4.68;;
58874;SDS011;44652;49.040;12.126;2023-06-05T08:38:40;16.90;;;5.15;;
58874;SDS011;44652;49.040;12.126;2023-06-05T08:41:08;19.98;;;5.28;;
58874;SDS011;44652;49.040;12.126;2023-06-05T08:43:37;9.40;;;4.72;;
58874;SDS011;44652;49.040;12.126;2023-06-05T08:46:04;8.97;;;4.77;;
58874;SDS011;44652;49.040;12.126;2023-06-05T08:48:32;8.18;;;4.60;;
58874;SDS011;44652;49.040;12.126;2023-06-05T08:51:01;6.88;;;4.20;;
58874;SDS011;44652;49.040;12.126;2023-06-05T08:53:29;7.93;;;4.53;;
58874;SDS011;44652;49.040;12.126;2023-06-05T08:55:58;11.32;;;4.95;;
58874;SDS011;44652;49.040;12.126;2023-06-05T08:58:25;9.98;;;4.50;;
58874;SDS011;44652;49.040;12.126;2023-06-05T09:00:51;8.50;;;4.70;;
58874;SDS011;44652;49.040;12.126;2023-06-05T09:03:18;8.98;;;5.25;;
58874;SDS011;44652;49.040;12.126;2023-06-05T09:05:47;11.13;;;4.57;;
58874;SDS011;44652;49.040;12.126;2023-06-05T09:08:17;12.93;;;4.70;;
58874;SDS011;44652;49.040;12.126;2023-06-05T09:10:45;10.68;;;4.57;;
58874;SDS011;44652;49.040;12.126;2023-06-05T09:13:12;7.65;;;3.85;;
58874;SDS011;44652;49.040;12.126;2023-06-05T09:15:38;6.78;;;4.30;;
58874;SDS011;44652;49.040;12.126;2023-06-05T09:18:14;7.03;;;4.30;;
58874;SDS011;44652;49.040;12.126;2023-06-05T09:20:43;6.43;;;4.40;;
58874;SDS011;44652;49.040;12.126;2023-06-05T09:25:54;9.68;;;4.20;;
58874;SDS011;44652;49.040;12.126;2023-06-05T09:28:22;7.45;;;4.28;;
58874;SDS011;44652;49.040;12.126;2023-06-05T09:33:25;8.45;;;4.25;;
58874;SDS011;44652;49.040;12.126;2023-06-05T09:36:09;6.25;;;4.43;;
58874;SDS011;44652;49.040;12.126;2023-06-05T09:38:40;8.27;;;4.30;;
58874;SDS011;44652;49.040;12.126;2023-06-05T09:41:10;9.18;;;4.50;;
58874;SDS011;44652;49.040;12.126;2023-06-05T09:43:37;7.75;;;4.20;;
58874;SDS011;44652;49.040;12.126;2023-06-05T09:46:08;7.85;;;3.90;;
58874;SDS011;44652;49.040;12.126;2023-06-05T09:48:37;6.70;;;4.00;;
58874;SDS011;44652;49.040;12.126;2023-06-05T09:53:40;9.93;;;4.20;;
58874;SDS011;44652;49.040;12.126;2023-06-05T09:56:14;7.15;;;3.85;;
58874;SDS011;44652;49.040;12.126;2023-06-05T09:58:45;10.32;;;4.05;;
58874;SDS011;44652;49.040;12.126;2023-06-05T10:01:16;9.27;;;4.18;;
58874;SDS011;44652;49.040;12.126;2023-06-05T10:03:46;6.40;;;3.90;;
58874;SDS011;44652;49.040;12.126;2023-06-05T10:06:13;6.85;;;4.07;;
58874;SDS011;44652;49.040;12.126;2023-06-05T10:08:46;5.10;;;3.45;;
58874;SDS011;44652;49.040;12.126;2023-06-05T10:11:14;6.10;;;4.00;;
58874;SDS011;44652;49.040;12.126;2023-06-05T10:13:42;7.25;;;3.75;;
58874;SDS011;44652;49.040;12.126;2023-06-05T10:20:13;9.85;;;3.92;;
58874;SDS011;44652;49.040;12.126;2023-06-05T10:39:57;6.38;;;3.25;;
58874;SDS011;44652;49.040;12.126;2023-06-05T10:42:25;6.70;;;3.50;;
58874;SDS011;44652;49.040;12.126;2023-06-05T10:44:52;5.25;;;3.00;;
58874;SDS011;44652;49.040;12.126;2023-06-05T10:52:47;6.10;;;3.25;;
58874;SDS011;44652;49.040;12.126;2023-06-05T10:55:14;5.78;;;3.25;;
58874;SDS011;44652;49.040;12.126;2023-06-05T11:00:22;5.95;;;2.85;;
58874;SDS011;44652;49.040;12.126;2023-06-05T11:02:48;4.10;;;2.80;;
58874;SDS011;44652;49.040;12.126;2023-06-05T11:05:15;5.22;;;2.80;;
58874;SDS011;44652;49.040;12.126;2023-06-05T11:10:28;4.40;;;2.95;;
58874;SDS011;44652;49.040;12.126;2023-06-05T11:12:55;7.15;;;3.00;;
58874;SDS011;44652;49.040;12.126;2023-06-05T11:17:49;4.40;;;3.00;;
58874;SDS011;44652;49.040;12.126;2023-06-05T11:27:57;7.68;;;3.55;;
58874;SDS011;44652;49.040;12.126;2023-06-05T11:30:26;5.60;;;3.80;;
58874;SDS011;44652;49.040;12.126;2023-06-05T11:33:13;5.32;;;3.60;;
58874;SDS011;44652;49.040;12.126;2023-06-05T11:35:42;4.63;;;3.38;;
58874;SDS011;44652;49.040;12.126;2023-06-05T11:38:19;6.38;;;4.28;;
58874;SDS011;44652;49.040;12.126;2023-06-05T11:40:50;7.63;;;3.45;;
58874;SDS011;44652;49.040;12.126;2023-06-05T11:43:16;5.20;;;3.30;;
58874;SDS011;44652;49.040;12.126;2023-06-05T11:45:53;5.78;;;3.10;;
58874;SDS011;44652;49.040;12.126;2023-06-05T11:48:20;5.00;;;3.40;;
58874;SDS011;44652;49.040;12.126;2023-06-05T11:53:19;8.82;;;3.58;;
58874;SDS011;44652;49.040;12.126;2023-06-05T11:55:46;5.53;;;3.60;;
58874;SDS011;44652;49.040;12.126;2023-06-05T11:58:25;8.80;;;3.30;;
58874;SDS011;44652;49.040;12.126;2023-06-05T12:00:52;5.15;;;3.45;;
58874;SDS011;44652;49.040;12.126;2023-06-05T12:03:19;8.07;;;3.10;;
58874;SDS011;44652;49.040;12.126;2023-06-05T12:05:47;5.53;;;3.00;;
58874;SDS011;44652;49.040;12.126;2023-06-05T12:08:23;4.75;;;3.20;;
58874;SDS011;44652;49.040;12.126;2023-06-05T12:10:54;7.95;;;3.40;;
58874;SDS011;44652;49.040;12.126;2023-06-05T12:13:22;6.15;;;3.13;;
58874;SDS011;44652;49.040;12.126;2023-06-05T12:15:58;6.68;;;3.38;;
58874;SDS011;44652;49.040;12.126;2023-06-05T12:18:31;4.88;;;3.40;;
58874;SDS011;44652;49.040;12.126;2023-06-05T12:20:59;7.38;;;3.38;;
58874;SDS011;44652;49.040;12.126;2023-06-05T12:23:28;6.85;;;3.20;;
58874;SDS011;44652;49.040;12.126;2023-06-05T12:26:04;6.53;;;2.97;;
58874;SDS011;44652;49.040;12.126;2023-06-05T12:28:30;5.50;;;2.97;;
58874;SDS011;44652;49.040;12.126;2023-06-05T12:30:57;8.68;;;3.38;;
58874;SDS011;44652;49.040;12.126;2023-06-05T12:33:24;6.80;;;3.90;;
58874;SDS011;44652;49.040;12.126;2023-06-05T12:36:12;4.63;;;3.13;;
58874;SDS011;44652;49.040;12.126;2023-06-05T12:38:39;6.88;;;3.47;;
58874;SDS011;44652;49.040;12.126;2023-06-05T12:43:36;4.70;;;3.25;;
58874;SDS011;44652;49.040;12.126;2023-06-05T12:46:03;6.28;;;2.90;;
58874;SDS011;44652;49.040;12.126;2023-06-05T12:48:29;7.07;;;3.47;;
58874;SDS011;44652;49.040;12.126;2023-06-05T12:50:56;7.68;;;3.58;;
58874;SDS011;44652;49.040;12.126;2023-06-05T12:53:23;6.13;;;3.33;;
58874;SDS011;44652;49.040;12.126;2023-06-05T12:55:49;7.00;;;3.17;;
58874;SDS011;44652;49.040;12.126;2023-06-05T12:58:16;5.00;;;3.05;;
58874;SDS011;44652;49.040;12.126;2023-06-05T13:00:43;5.60;;;3.10;;
58874;SDS011;44652;49.040;12.126;2023-06-05T13:03:10;4.60;;;3.03;;
58874;SDS011;44652;49.040;12.126;2023-06-05T13:05:39;6.05;;;3.00;;
58874;SDS011;44652;49.040;12.126;2023-06-05T13:08:05;5.75;;;3.00;;
58874;SDS011;44652;49.040;12.126;2023-06-05T13:10:35;5.93;;;3.40;;
58874;SDS011;44652;49.040;12.126;2023-06-05T13:13:02;6.03;;;2.80;;
58874;SDS011;44652;49.040;12.126;2023-06-05T13:15:28;4.38;;;3.00;;
58874;SDS011;44652;49.040;12.126;2023-06-05T13:17:55;5.22;;;2.80;;
58874;SDS011;44652;49.040;12.126;2023-06-05T13:20:21;5.72;;;2.97;;
58874;SDS011;44652;49.040;12.126;2023-06-05T13:22:48;7.15;;;2.90;;
58874;SDS011;44652;49.040;12.126;2023-06-05T13:25:15;7.30;;;2.55;;
58874;SDS011;44652;49.040;12.126;2023-06-05T13:27:41;3.83;;;2.75;;
58874;SDS011;44652;49.040;12.126;2023-06-05T13:30:08;3.65;;;2.47;;
58874;SDS011;44652;49.040;12.126;2023-06-05T13:32:35;4.17;;;2.80;;
58874;SDS011;44652;49.040;12.126;2023-06-05T13:35:05;4.40;;;2.45;;
58874;SDS011;44652;49.040;12.126;2023-06-05T13:37:32;6.03;;;2.38;;
58874;SDS011;44652;49.040;12.126;2023-06-05T13:39:59;6.97;;;2.20;;
58874;SDS011;44652;49.040;12.126;2023-06-05T13:42:25;3.70;;;2.25;;
58874;SDS011;44652;49.040;12.126;2023-06-05T13:44:53;6.47;;;2.40;;
58874;SDS011;44652;49.040;12.126;2023-06-05T13:47:20;3.92;;;2.17;;
58874;SDS011;44652;49.040;12.126;2023-06-05T13:49:46;6.57;;;2.03;;
58874;SDS011;44652;49.040;12.126;2023-06-05T13:52:13;3.03;;;1.70;;
58874;SDS011;44652;49.040;12.126;2023-06-05T13:54:40;5.97;;;1.95;;
58874;SDS011;44652;49.040;12.126;2023-06-05T13:57:07;2.33;;;1.50;;
58874;SDS011;44652;49.040;12.126;2023-06-05T13:59:34;3.63;;;1.80;;
58874;SDS011;44652;49.040;12.126;2023-06-05T14:02:01;3.70;;;1.85;;
58874;SDS011;44652;49.040;12.126;2023-06-05T14:04:27;3.75;;;1.58;;
58874;SDS011;44652;49.040;12.126;2023-06-05T14:06:55;5.70;;;1.63;;
58874;SDS011;44652;49.040;12.126;2023-06-05T14:09:24;2.05;;;1.30;;
58874;SDS011;44652;49.040;12.126;2023-06-05T14:11:50;4.20;;;1.30;;
58874;SDS011;44652;49.040;12.126;2023-06-05T14:14:17;2.83;;;1.20;;
58874;SDS011;44652;49.040;12.126;2023-06-05T14:16:45;1.48;;;1.00;;
58874;SDS011;44652;49.040;12.126;2023-06-05T14:19:11;5.80;;;1.33;;
58874;SDS011;44652;49.040;12.126;2023-06-05T14:21:38;3.47;;;1.30;;
58874;SDS011;44652;49.040;12.126;2023-06-05T14:24:06;4.47;;;1.20;;
58874;SDS011;44652;49.040;12.126;2023-06-05T14:26:34;3.08;;;1.38;;
58874;SDS011;44652;49.040;12.126;2023-06-05T14:29:00;1.63;;;1.20;;
58874;SDS011;44652;49.040;12.126;2023-06-05T14:31:27;3.10;;;1.40;;
58874;SDS011;44652;49.040;12.126;2023-06-05T14:33:54;4.13;;;1.20;;
58874;SDS011;44652;49.040;12.126;2023-06-05T14:36:21;1.95;;;1.33;;
58874;SDS011;44652;49.040;12.126;2023-06-05T14:38:47;2.30;;;1.80;;
58874;SDS011;44652;49.040;12.126;2023-06-05T14:41:15;4.38;;;1.80;;
58874;SDS011;44652;49.040;12.126;2023-06-05T14:43:41;2.60;;;1.77;;
58874;SDS011;44652;49.040;12.126;2023-06-05T14:46:10;3.28;;;1.35;;
58874;SDS011;44652;49.040;12.126;2023-06-05T14:48:37;1.60;;;1.30;;
58874;SDS011;44652;49.040;12.126;2023-06-05T14:51:04;5.00;;;1.10;;
58874;SDS011;44652;49.040;12.126;2023-06-05T14:53:30;4.07;;;1.50;;
58874;SDS011;44652;49.040;12.126;2023-06-05T14:55:58;3.13;;;1.83;;
58874;SDS011;44652;49.040;12.126;2023-06-05T14:58:25;3.78;;;1.40;;
58874;SDS011;44652;49.040;12.126;2023-06-05T15:00:51;2.55;;;1.42;;
58874;SDS011;44652;49.040;12.126;2023-06-05T15:03:35;1.40;;;1.02;;
58874;SDS011;44652;49.040;12.126;2023-06-05T15:06:01;5.40;;;1.30;;
58874;SDS011;44652;49.040;12.126;2023-06-05T15:08:48;8.95;;;1.17;;
58874;SDS011;44652;49.040;12.126;2023-06-05T15:11:14;2.47;;;1.20;;
58874;SDS011;44652;49.040;12.126;2023-06-05T15:13:41;2.25;;;1.10;;
58874;SDS011;44652;49.040;12.126;2023-06-05T15:16:08;2.80;;;1.23;;
58874;SDS011;44652;49.040;12.126;2023-06-05T15:18:35;1.50;;;1.10;;
58874;SDS011;44652;49.040;12.126;2023-06-05T15:21:01;2.65;;;1.40;;
58874;SDS011;44652;49.040;12.126;2023-06-05T15:23:28;2.03;;;1.20;;
58874;SDS011;44652;49.040;12.126;2023-06-05T15:25:55;2.58;;;1.10;;
58874;SDS011;44652;49.040;12.126;2023-06-05T15:28:21;3.33;;;1.13;;
58874;SDS011;44652;49.040;12.126;2023-06-05T15:30:48;3.17;;;1.25;;
58874;SDS011;44652;49.040;12.126;2023-06-05T15:33:14;2.33;;;1.30;;
58874;SDS011;44652;49.040;12.126;2023-06-05T15:35:42;2.33;;;1.25;;
58874;SDS011;44652;49.040;12.126;2023-06-05T15:40:36;2.97;;;1.20;;
58874;SDS011;44652;49.040;12.126;2023-06-05T15:43:04;1.05;;;0.80;;
58874;SDS011;44652;49.040;12.126;2023-06-05T15:48:34;2.85;;;1.00;;
58874;SDS011;44652;49.040;12.126;2023-06-05T15:51:04;1.80;;;1.00;;
58874;SDS011;44652;49.040;12.126;2023-06-05T15:53:31;1.98;;;1.20;;
58874;SDS011;44652;49.040;12.126;2023-06-05T15:56:16;4.22;;;0.85;;
58874;SDS011;44652;49.040;12.126;2023-06-05T16:02:40;1.55;;;0.95;;
58874;SDS011;44652;49.040;12.126;2023-06-05T16:05:06;4.25;;;1.20;;
58874;SDS011;44652;49.040;12.126;2023-06-05T16:07:33;1.33;;;1.10;;
58874;SDS011;44652;49.040;12.126;2023-06-05T16:10:00;3.35;;;1.10;;
58874;SDS011;44652;49.040;12.126;2023-06-05T16:12:32;1.38;;;1.15;;
58874;SDS011;44652;49.040;12.126;2023-06-05T16:15:01;2.45;;;1.30;;
58874;SDS011;44652;49.040;12.126;2023-06-05T16:17:28;1.67;;;1.10;;
58874;SDS011;44652;49.040;12.126;2023-06-05T16:19:55;2.70;;;1.10;;
58874;SDS011;44652;49.040;12.126;2023-06-05T16:22:23;3.45;;;1.52;;
58874;SDS011;44652;49.040;12.126;2023-06-05T16:24:50;2.75;;;1.27;;
58874;SDS011;44652;49.040;12.126;2023-06-05T16:27:18;2.83;;;1.40;;
58874;SDS011;44652;49.040;12.126;2023-06-05T16:29:46;4.72;;;1.30;;
58874;SDS011;44652;49.040;12.126;2023-06-05T16:32:30;4.05;;;1.20;;
58874;SDS011;44652;49.040;12.126;2023-06-05T16:34:57;1.83;;;1.20;;
58874;SDS011;44652;49.040;12.126;2023-06-05T16:37:25;1.80;;;1.35;;
58874;SDS011;44652;49.040;12.126;2023-06-05T16:39:56;2.33;;;1.30;;
58874;SDS011;44652;49.040;12.126;2023-06-05T16:42:26;1.70;;;1.23;;
58874;SDS011;44652;49.040;12.126;2023-06-05T16:44:57;6.93;;;1.50;;
58874;SDS011;44652;49.040;12.126;2023-06-05T16:47:24;3.78;;;1.30;;
58874;SDS011;44652;49.040;12.126;2023-06-05T16:49:51;4.60;;;1.30;;
58874;SDS011;44652;49.040;12.126;2023-06-05T16:52:17;2.60;;;1.30;;
58874;SDS011;44652;49.040;12.126;2023-06-05T16:54:44;2.13;;;1.17;;
58874;SDS011;44652;49.040;12.126;2023-06-05T16:57:11;2.33;;;1.13;;
58874;SDS011;44652;49.040;12.126;2023-06-05T16:59:37;2.33;;;1.23;;
58874;SDS011;44652;49.040;12.126;2023-06-05T17:02:06;1.88;;;1.30;;
58874;SDS011;44652;49.040;12.126;2023-06-05T17:04:35;1.70;;;1.10;;
58874;SDS011;44652;49.040;12.126;2023-06-05T17:07:02;1.75;;;1.15;;
58874;SDS011;44652;49.040;12.126;2023-06-05T17:09:29;5.93;;;1.53;;
58874;SDS011;44652;49.040;12.126;2023-06-05T17:11:57;2.03;;;1.30;;
58874;SDS011;44652;49.040;12.126;2023-06-05T17:14:24;3.60;;;1.40;;
58874;SDS011;44652;49.040;12.126;2023-06-05T17:16:50;2.25;;;1.30;;
58874;SDS011;44652;49.040;12.126;2023-06-05T17:19:17;2.05;;;1.10;;
58874;SDS011;44652;49.040;12.126;2023-06-05T17:21:43;3.42;;;1.20;;
58874;SDS011;44652;49.040;12.126;2023-06-05T17:24:10;2.53;;;1.40;;
58874;SDS011;44652;49.040;12.126;2023-06-05T17:26:37;2.35;;;1.30;;
58874;SDS011;44652;49.040;12.126;2023-06-05T17:29:03;3.15;;;1.30;;
58874;SDS011;44652;49.040;12.126;2023-06-05T17:31:30;2.00;;;1.05;;
58874;SDS011;44652;49.040;12.126;2023-06-05T17:33:57;1.75;;;1.20;;
58874;SDS011;44652;49.040;12.126;2023-06-05T17:36:24;2.00;;;1.33;;
58874;SDS011;44652;49.040;12.126;2023-06-05T17:38:51;3.47;;;1.33;;
58874;SDS011;44652;49.040;12.126;2023-06-05T17:41:17;3.92;;;1.40;;
58874;SDS011;44652;49.040;12.126;2023-06-05T17:43:48;5.55;;;1.50;;
58874;SDS011;44652;49.040;12.126;2023-06-05T17:46:15;2.75;;;1.50;;
58874;SDS011;44652;49.040;12.126;2023-06-05T17:48:41;2.63;;;1.48;;
58874;SDS011;44652;49.040;12.126;2023-06-05T17:51:08;3.30;;;1.33;;
58874;SDS011;44652;49.040;12.126;2023-06-05T17:53:35;2.83;;;1.60;;
58874;SDS011;44652;49.040;12.126;2023-06-05T17:56:02;3.72;;;1.70;;
58874;SDS011;44652;49.040;12.126;2023-06-05T17:58:28;3.30;;;1.90;;
58874;SDS011;44652;49.040;12.126;2023-06-05T18:00:55;3.28;;;1.70;;
58874;SDS011;44652;49.040;12.126;2023-06-05T18:03:22;3.20;;;1.70;;
58874;SDS011;44652;49.040;12.126;2023-06-05T18:05:50;2.75;;;2.00;;
58874;SDS011;44652;49.040;12.126;2023-06-05T18:08:19;6.25;;;1.80;;
58874;SDS011;44652;49.040;12.126;2023-06-05T18:10:46;2.80;;;1.80;;
58874;SDS011;44652;49.040;12.126;2023-06-05T18:13:12;3.05;;;1.83;;
58874;SDS011;44652;49.040;12.126;2023-06-05T18:15:39;2.95;;;1.83;;
58874;SDS011;44652;49.040;12.126;2023-06-05T18:22:04;3.53;;;2.00;;
58874;SDS011;44652;49.040;12.126;2023-06-05T18:24:33;3.72;;;1.90;;
58874;SDS011;44652;49.040;12.126;2023-06-05T18:27:11;3.50;;;2.03;;
58874;SDS011;44652;49.040;12.126;2023-06-05T18:29:38;3.92;;;1.88;;
58874;SDS011;44652;49.040;12.126;2023-06-05T18:32:11;3.95;;;1.88;;
58874;SDS011;44652;49.040;12.126;2023-06-05T18:34:44;3.28;;;1.90;;
58874;SDS011;44652;49.040;12.126;2023-06-05T18:41:26;3.53;;;1.85;;
58874;SDS011;44652;49.040;12.126;2023-06-05T18:43:56;5.38;;;2.00;;
58874;SDS011;44652;49.040;12.126;2023-06-05T18:46:23;3.03;;;2.10;;
58874;SDS011;44652;49.040;12.126;2023-06-05T18:48:49;3.70;;;2.17;;
58874;SDS011;44652;49.040;12.126;2023-06-05T18:51:16;2.95;;;1.85;;
58874;SDS011;44652;49.040;12.126;2023-06-05T18:53:42;3.75;;;2.28;;
58874;SDS011;44652;49.040;12.126;2023-06-05T18:56:10;5.03;;;2.30;;
58874;SDS011;44652;49.040;12.126;2023-06-05T18:58:37;5.45;;;2.30;;
58874;SDS011;44652;49.040;12.126;2023-06-05T19:01:03;5.30;;;2.20;;
58874;SDS011;44652;49.040;12.126;2023-06-05T19:03:30;5.35;;;2.50;;
58874;SDS011;44652;49.040;12.126;2023-06-05T19:05:57;3.58;;;2.20;;
58874;SDS011;44652;49.040;12.126;2023-06-05T19:08:23;3.35;;;2.10;;
58874;SDS011;44652;49.040;12.126;2023-06-05T19:10:52;5.05;;;2.40;;
58874;SDS011;44652;49.040;12.126;2023-06-05T19:13:19;5.18;;;2.47;;
58874;SDS011;44652;49.040;12.126;2023-06-05T19:15:45;4.25;;;2.63;;
58874;SDS011;44652;49.040;12.126;2023-06-05T19:18:17;3.90;;;2.83;;
58874;SDS011;44652;49.040;12.126;2023-06-05T19:20:44;4.18;;;2.42;;
58874;SDS011;44652;49.040;12.126;2023-06-05T19:23:11;5.13;;;2.95;;
58874;SDS011;44652;49.040;12.126;2023-06-05T19:25:37;4.28;;;2.45;;
58874;SDS011;44652;49.040;12.126;2023-06-05T19:28:04;4.93;;;2.70;;
58874;SDS011;44652;49.040;12.126;2023-06-05T19:30:31;4.93;;;2.88;;
58874;SDS011;44652;49.040;12.126;2023-06-05T19:32:57;4.70;;;2.80;;
58874;SDS011;44652;49.040;12.126;2023-06-05T19:35:27;4.45;;;2.65;;
58874;SDS011;44652;49.040;12.126;2023-06-05T19:38:38;4.18;;;2.55;;
58874;SDS011;44652;49.040;12.126;2023-06-05T19:41:11;3.72;;;2.35;;
58874;SDS011;44652;49.040;12.126;2023-06-05T19:43:39;5.80;;;2.95;;
58874;SDS011;44652;49.040;12.126;2023-06-05T19:46:06;4.55;;;2.80;;
58874;SDS011;44652;49.040;12.126;2023-06-05T19:48:33;4.53;;;2.75;;
58874;SDS011;44652;49.040;12.126;2023-06-05T19:51:00;5.60;;;2.65;;
58874;SDS011;44652;49.040;12.126;2023-06-05T19:53:26;5.22;;;2.97;;
58874;SDS011;44652;49.040;12.126;2023-06-05T19:55:53;4.28;;;2.60;;
58874;SDS011;44652;49.040;12.126;2023-06-05T19:58:19;4.38;;;2.80;;
58874;SDS011;44652;49.040;12.126;2023-06-05T20:00:48;6.07;;;2.78;;
58874;SDS011;44652;49.040;12.126;2023-06-05T20:03:15;5.10;;;2.72;;
58874;SDS011;44652;49.040;12.126;2023-06-05T20:05:42;4.43;;;2.65;;
58874;SDS011;44652;49.040;12.126;2023-06-05T20:08:09;5.15;;;2.70;;
58874;SDS011;44652;49.040;12.126;2023-06-05T20:10:38;4.90;;;2.78;;
58874;SDS011;44652;49.040;12.126;2023-06-05T20:22:02;4.10;;;2.78;;
58874;SDS011;44652;49.040;12.126;2023-06-05T20:24:35;4.10;;;2.60;;
58874;SDS011;44652;49.040;12.126;2023-06-05T20:27:05;3.88;;;2.67;;
58874;SDS011;44652;49.040;12.126;2023-06-05T20:29:32;5.97;;;3.00;;
58874;SDS011;44652;49.040;12.126;2023-06-05T20:31:59;5.18;;;2.72;;
58874;SDS011;44652;49.040;12.126;2023-06-05T20:34:26;5.28;;;2.90;;
58874;SDS011;44652;49.040;12.126;2023-06-05T20:36:53;5.03;;;2.85;;
58874;SDS011;44652;49.040;12.126;2023-06-05T20:39:22;4.22;;;2.58;;
58874;SDS011;44652;49.040;12.126;2023-06-05T20:41:49;6.35;;;2.97;;
58874;SDS011;44652;49.040;12.126;2023-06-05T20:44:19;5.53;;;3.08;;
58874;SDS011;44652;49.040;12.126;2023-06-05T20:46:48;4.90;;;2.85;;